METAR

TAF

 




Rio de Janeiro / Galeão - Antonio Carlos Jobim, RJ - SBGL


01 de Novembro de 2014 às 13:00 (UTC)


Tempo:

Céu sem restrições operacionais para aviação

Temperatura:

32ºC

Umidade Relativa:

43%

Localização:
Ajuste do Altímetro:

1015 hPa

Visibilidade Horizontal Predominante:

Igual ou acima de 10 Km

Direção e Velocidade do Vento:

330° 7,41 Km/h


Observação Meteorológica:

METAR SBGL 011300Z 33004KT CAVOK 32/18 Q1015=